Time;durP1;ratioP1;P1;durP2;ratioP2;P2;SDS_P1;SDS_P2;PMS_P1;PMS_P2;Temp;Humidity;BMP_temperature;BMP_pressure;BME280_temperature;BME280_humidity;BME280_pressure;Samples;Min_cycle;Max_cycle;Signal;HPM_P1;HPM_P2
2023/12/23 07:29:58;;;;;;;13.40;7.80;;;;;;;-0.30;100.00;98775.98;104772;1277;600669;-80
2023/12/23 07:32:27;;;;;;;10.50;6.70;;;;;;;-0.19;100.00;98784.45;107095;1247;62012;-79
2023/12/23 07:34:56;;;;;;;11.30;6.60;;;;;;;-0.14;100.00;98792.70;106911;1252;61096;-80
2023/12/23 07:37:24;;;;;;;7.70;4.80;;;;;;;-0.11;100.00;98798.86;106925;1250;71350;-81
2023/12/23 07:39:54;;;;;;;7.40;4.40;;;;;;;-0.10;100.00;98794.30;106702;1251;69927;-81
2023/12/23 07:42:22;;;;;;;6.30;3.90;;;;;;;0.04;100.00;98798.12;106722;1262;69621;-82
2023/12/23 07:44:51;;;;;;;4.40;3.10;;;;;;;0.09;100.00;98791.80;106778;1248;73691;-82
2023/12/23 07:47:20;;;;;;;5.90;3.00;;;;;;;0.20;100.00;98800.94;106901;1248;60262;-82
2023/12/23 07:49:49;;;;;;;5.20;2.70;;;;;;;0.22;100.00;98793.05;107031;1248;59119;-81
2023/12/23 07:52:20;;;;;;;5.00;2.60;;;;;;;0.28;100.00;98794.80;106862;1248;69954;-81
2023/12/23 07:54:49;;;;;;;5.30;2.60;;;;;;;0.29;100.00;98800.37;106761;1248;69524;-79
2023/12/23 07:57:20;;;;;;;5.30;2.50;;;;;;;0.37;100.00;98803.34;106818;1247;69953;-79
2023/12/23 07:59:49;;;;;;;3.00;2.20;;;;;;;0.42;100.00;98805.92;106765;1260;73944;-76
2023/12/23 08:02:21;;;;;;;4.30;1.90;;;;;;;0.46;100.00;98802.42;106769;1251;62055;-74
2023/12/23 08:04:50;;;;;;;2.70;1.60;;;;;;;0.49;100.00;98799.69;106818;1258;61306;-77
2023/12/23 08:07:20;;;;;;;3.00;2.20;;;;;;;0.48;100.00;98807.80;106664;1251;71233;-76
2023/12/23 08:09:50;;;;;;;6.20;2.30;;;;;;;0.59;100.00;98816.56;106663;1247;71457;-77
2023/12/23 08:12:20;;;;;;;4.20;2.50;;;;;;;0.61;100.00;98821.85;106607;1247;70684;-75
2023/12/23 08:14:48;;;;;;;6.10;3.20;;;;;;;0.61;100.00;98817.08;106867;1248;74284;-81
2023/12/23 08:17:17;;;;;;;5.70;3.20;;;;;;;0.63;100.00;98803.13;106880;1250;62083;-83
2023/12/23 08:19:47;;;;;;;4.40;2.90;;;;;;;0.66;100.00;98794.70;107020;1260;62243;-81
2023/12/23 08:46:47;;;;;;;6.70;4.50;;;;;;;0.26;100.00;98815.24;104758;1277;600962;-82
2023/12/23 08:49:16;;;;;;;6.60;4.90;;;;;;;0.55;100.00;98804.27;108047;1252;58931;-81
2023/12/23 08:51:45;;;;;;;11.20;5.80;;;;;;;0.67;100.00;98801.48;107619;1249;60854;-83
2023/12/23 08:54:16;;;;;;;5.00;3.20;;;;;;;0.83;100.00;98797.42;107005;1249;71905;-82
2023/12/23 08:56:45;;;;;;;5.50;4.00;;;;;;;0.97;100.00;98804.90;106915;1251;70467;-83
2023/12/23 08:59:14;;;;;;;4.20;3.30;;;;;;;1.06;100.00;98804.86;106625;1251;503637;-81
2023/12/23 09:01:46;;;;;;;8.40;4.00;;;;;;;1.16;100.00;98801.98;107098;1247;71393;-85
2023/12/23 09:04:17;;;;;;;4.80;3.10;;;;;;;1.35;100.00;98813.61;107014;1247;59817;-85
2023/12/23 09:06:48;;;;;;;7.30;3.30;;;;;;;1.53;100.00;98827.73;107175;1247;61019;-83
2023/12/23 09:09:17;;;;;;;6.60;3.70;;;;;;;1.67;100.00;98827.66;107099;1245;71391;-84
2023/12/23 09:11:46;;;;;;;5.40;3.00;;;;;;;1.78;100.00;98826.08;107190;1246;72159;-84
2023/12/23 09:14:15;;;;;;;7.70;3.90;;;;;;;1.82;100.00;98827.33;107656;1248;70332;-81
2023/12/23 09:16:44;;;;;;;5.80;3.70;;;;;;;1.78;100.00;98833.84;107703;1247;71369;-83
2023/12/23 09:19:13;;;;;;;7.40;3.90;;;;;;;1.77;100.00;98839.73;107708;1246;60480;-81
2023/12/23 09:21:42;;;;;;;8.70;4.50;;;;;;;1.66;100.00;98846.14;107453;1247;60771;-82
2023/12/23 09:24:11;;;;;;;6.40;3.50;;;;;;;1.70;100.00;98856.11;107605;1247;72736;-84
2023/12/23 09:26:41;;;;;;;6.60;3.30;;;;;;;1.74;100.00;98856.88;107210;1247;71869;-85
2023/12/23 09:29:10;;;;;;;5.30;2.80;;;;;;;1.80;100.00;98865.77;107014;1247;70634;-84
2023/12/23 09:31:39;;;;;;;7.80;4.10;;;;;;;1.81;100.00;98864.50;106990;1258;73738;-84
2023/12/23 09:34:09;;;;;;;6.20;3.00;;;;;;;1.75;100.00;98864.54;106985;1258;62624;-83
2023/12/23 09:36:38;;;;;;;8.10;4.00;;;;;;;1.72;100.00;98873.47;107174;1243;61325;-82
2023/12/23 09:39:08;;;;;;;15.90;5.40;;;;;;;1.69;100.00;98892.23;106960;1256;71898;-84
2023/12/23 09:41:39;;;;;;;11.40;4.50;;;;;;;1.57;100.00;98910.84;106773;1250;72273;-77
2023/12/23 09:44:08;;;;;;;8.30;4.40;;;;;;;1.46;100.00;98901.10;107132;1246;71150;-84
2023/12/23 09:46:38;;;;;;;6.60;3.70;;;;;;;1.30;100.00;98911.36;107294;1243;74201;-83
2023/12/23 09:49:08;;;;;;;8.00;4.30;;;;;;;1.16;100.00;98909.17;106938;1256;63356;-83
2023/12/23 09:51:56;;;;;;;7.30;4.80;;;;;;;0.99;100.00;98899.89;104332;1283;603621;-83
2023/12/23 09:54:29;;;;;;;8.90;5.10;;;;;;;0.89;100.00;98911.88;106004;1264;61100;-83
2023/12/23 09:56:58;;;;;;;10.10;5.30;;;;;;;0.82;100.00;98914.85;106771;1251;60866;-84
2023/12/23 09:59:28;;;;;;;10.30;5.20;;;;;;;0.88;100.00;98918.96;106726;1252;70343;-85
2023/12/23 10:01:57;;;;;;;8.20;5.00;;;;;;;0.96;100.00;98911.91;106919;1254;70182;-84
2023/12/23 10:04:29;;;;;;;10.30;4.60;;;;;;;1.06;100.00;98910.45;106717;1252;208608;-83
2023/12/23 10:06:57;;;;;;;7.60;4.70;;;;;;;1.18;100.00;98900.60;106914;1248;72675;-84
2023/12/23 10:09:30;;;;;;;7.70;3.20;;;;;;;1.24;100.00;98885.48;106965;1249;62086;-83
2023/12/23 10:12:02;;;;;;;5.30;3.10;;;;;;;1.06;100.00;98883.19;106796;1248;59350;-84
2023/12/23 10:14:31;;;;;;;6.10;2.90;;;;;;;1.07;100.00;98869.09;107102;1247;70078;-85
2023/12/23 10:17:00;;;;;;;8.00;3.70;;;;;;;1.09;100.00;98876.14;106893;1248;72602;-84
2023/12/23 10:19:31;;;;;;;5.10;3.00;;;;;;;1.21;100.00;98867.53;106826;1251;70148;-84
2023/12/23 10:22:00;;;;;;;3.60;2.20;;;;;;;1.26;100.00;98863.27;106982;1251;73744;-83
2023/12/23 10:24:36;;;;;;;3.80;2.20;;;;;;;1.18;100.00;98861.67;107627;1249;61381;-83
2023/12/23 10:27:05;;;;;;;;;;;;;;;1.29;100.00;98856.70;107042;1251;61391;-84
2023/12/23 10:29:35;;;;;;;5.40;3.40;;;;;;;1.56;100.00;98857.21;106901;1247;72699;-84
2023/12/23 10:32:04;;;;;;;8.10;2.90;;;;;;;1.61;100.00;98861.02;106818;1249;69506;-84
2023/12/23 10:34:44;;;;;;;6.10;2.80;;;;;;;1.60;100.00;98867.61;106745;1259;69803;-83
2023/12/23 10:37:14;;;;;;;3.20;2.40;;;;;;;1.63;100.00;98872.20;106714;1247;73540;-84
2023/12/23 10:40:21;;;;;;;5.30;2.30;;;;;;;1.70;100.00;98877.90;106873;1248;62534;-84
2023/12/23 10:42:54;;;;;;;4.00;2.60;;;;;;;1.67;100.00;98877.98;106848;1249;60187;-84
2023/12/23 10:45:23;;;;;;;4.60;2.80;;;;;;;1.76;100.00;98880.42;106818;1247;70769;-84
2023/12/23 10:47:53;;;;;;;5.70;3.30;;;;;;;2.00;100.00;98881.32;106935;1249;69622;-84
2023/12/23 10:50:23;;;;;;;4.50;2.50;;;;;;;2.23;100.00;98884.19;106827;1259;68471;-83
2023/12/23 10:52:53;;;;;;;4.00;2.30;;;;;;;2.39;100.00;98888.96;106794;1259;73892;-84
2023/12/23 10:55:27;;;;;;;5.60;3.10;;;;;;;2.47;100.00;98891.55;106921;1250;61830;-83
2023/12/23 10:58:01;;;;;;;6.00;2.70;;;;;;;2.73;100.00;98887.67;106833;1249;59548;-85
2023/12/23 11:00:30;;;;;;;4.80;2.60;;;;;;;3.05;100.00;98879.59;106757;1259;72448;-84
2023/12/23 11:03:02;;;;;;;6.80;3.70;;;;;;;3.28;100.00;98871.44;106685;1251;70825;-84
2023/12/23 11:05:35;;;;;;;6.00;3.30;;;;;;;3.38;100.00;98879.83;106888;1246;68820;-84
2023/12/23 11:08:09;;;;;;;6.80;3.60;;;;;;;3.54;100.00;98879.79;107207;1250;62523;-84
2023/12/23 11:10:51;;;;;;;5.90;2.80;;;;;;;3.53;100.00;98875.67;106735;1254;59065;-83
2023/12/23 11:13:21;;;;;;;5.20;2.90;;;;;;;3.70;100.00;98882.34;106740;1253;61552;-85
2023/12/23 11:15:50;;;;;;;4.60;2.50;;;;;;;3.50;100.00;98890.16;106950;1247;72146;-83
2023/12/23 11:18:21;;;;;;;3.40;2.30;;;;;;;3.38;100.00;98906.83;106918;1259;62135;-83
2023/12/23 11:20:54;;;;;;;4.80;2.50;;;;;;;3.20;100.00;98904.98;106587;1254;61779;-83
2023/12/23 11:23:27;;;;;;;5.40;3.00;;;;;;;3.01;100.00;98891.04;106764;1251;73441;-85
2023/12/23 11:25:56;;;;;;;4.70;2.40;;;;;;;3.01;100.00;98897.80;106864;1248;59160;-84
2023/12/23 11:28:29;;;;;;;4.40;2.10;;;;;;;3.11;100.00;98891.19;106891;1250;59819;-83
2023/12/23 11:31:00;;;;;;;4.80;2.50;;;;;;;3.13;100.00;98888.48;107212;1248;72539;-83
2023/12/23 11:33:36;;;;;;;5.50;2.60;;;;;;;2.91;100.00;98891.77;107696;1249;62881;-83
2023/12/23 11:36:07;;;;;;;4.00;2.60;;;;;;;2.83;100.00;98897.13;106875;1259;59086;-83
2023/12/23 11:38:57;;;;;;;6.20;2.90;;;;;;;2.68;100.00;98904.52;106791;1251;71174;-82
2023/12/23 11:41:42;;;;;;;6.60;2.20;;;;;;;2.62;100.00;98907.88;106804;1259;58046;-82
2023/12/23 11:44:12;;;;;;;6.50;2.60;;;;;;;2.44;100.00;98901.34;106984;1247;60318;-82
2023/12/23 11:46:42;;;;;;;5.40;2.40;;;;;;;2.44;100.00;98897.23;107170;1245;73202;-82
2023/12/23 11:49:12;;;;;;;4.60;2.60;;;;;;;2.40;100.00;98895.91;106860;1256;70823;-82
2023/12/23 11:51:42;;;;;;;7.60;3.30;;;;;;;2.25;100.00;98900.02;107033;1255;68782;-82
2023/12/23 11:54:13;;;;;;;10.20;3.50;;;;;;;2.41;100.00;98907.53;107017;1248;74470;-83
2023/12/23 11:56:42;;;;;;;5.70;2.70;;;;;;;2.44;100.00;98909.27;107278;1244;61256;-82
2023/12/23 11:59:11;;;;;;;6.60;3.50;;;;;;;2.45;100.00;98907.15;107030;1246;60831;-81
2023/12/23 12:01:40;;;;;;;5.10;3.40;;;;;;;2.41;100.00;98905.48;106974;1247;71265;-83
2023/12/23 12:04:09;;;;;;;7.50;3.10;;;;;;;2.44;100.00;98897.92;107131;1245;69745;-84
2023/12/23 12:06:38;;;;;;;5.50;2.80;;;;;;;2.59;100.00;98904.27;107094;1246;68653;-82
2023/12/23 12:09:07;;;;;;;6.40;2.80;;;;;;;2.64;100.00;98909.11;106809;1247;73036;-82
2023/12/23 12:11:37;;;;;;;5.70;2.50;;;;;;;2.73;100.00;98915.04;106970;1245;61807;-81
2023/12/23 12:14:07;;;;;;;5.30;2.80;;;;;;;3.25;100.00;98906.45;106843;1248;59134;-80
2023/12/23 12:16:37;;;;;;;5.70;2.90;;;;;;;3.76;100.00;98904.14;106976;1248;69970;-81
2023/12/23 12:19:06;;;;;;;7.00;3.10;;;;;;;4.14;100.00;98912.64;107112;1246;70610;-81
2023/12/23 12:21:35;;;;;;;8.10;3.30;;;;;;;4.26;100.00;98913.82;107134;1244;71357;-81
2023/12/23 12:24:05;;;;;;;4.80;3.10;;;;;;;4.18;100.00;98910.16;107116;1248;72349;-80
2023/12/23 12:26:34;;;;;;;5.20;3.60;;;;;;;4.13;100.00;98910.84;107113;1245;58593;-81
2023/12/23 12:29:04;;;;;;;7.90;3.90;;;;;;;4.20;100.00;98918.92;107154;1245;58884;-81
2023/12/23 12:31:33;;;;;;;8.40;3.80;;;;;;;4.40;100.00;98923.14;107259;1244;72775;-83
2023/12/23 12:34:02;;;;;;;6.60;3.40;;;;;;;4.52;100.00;98924.08;107204;1244;72564;-79
2023/12/23 12:36:30;;;;;;;5.50;3.20;;;;;;;4.71;100.00;98930.30;107220;1245;70853;-81
2023/12/23 12:38:59;;;;;;;8.10;3.80;;;;;;;4.97;100.00;98927.74;107140;1254;72710;-82
2023/12/23 12:41:29;;;;;;;6.90;3.90;;;;;;;5.48;100.00;98923.52;107045;1246;59010;-83
2023/12/23 12:43:58;;;;;;;7.00;2.90;;;;;;;6.03;100.00;98928.67;107156;1245;61088;-82
2023/12/23 12:46:31;;;;;;;6.20;3.00;;;;;;;6.49;100.00;98927.48;107280;1246;73224;-81
2023/12/23 12:49:05;;;;;;;5.50;3.00;;;;;;;6.64;100.00;98926.39;107214;1244;73144;-83
2023/12/23 12:51:40;;;;;;;6.60;3.00;;;;;;;6.58;100.00;98927.36;107742;1246;70007;-84
2023/12/23 12:54:09;;;;;;;6.40;3.70;;;;;;;6.43;100.00;98923.61;107075;1255;73123;-83
2023/12/23 12:56:41;;;;;;;11.60;3.30;;;;;;;6.42;100.00;98927.52;107288;1247;59844;-83
2023/12/23 12:59:10;;;;;;;6.40;3.10;;;;;;;6.30;100.00;98930.80;107294;1248;58995;-82
2023/12/23 13:01:39;;;;;;;4.70;2.70;;;;;;;6.31;100.00;98928.08;107223;1244;71246;-86
2023/12/23 13:04:08;;;;;;;6.90;3.50;;;;;;;6.29;100.00;98923.54;107191;1248;69502;-84
2023/12/23 13:06:43;;;;;;;6.90;3.20;;;;;;;6.47;100.00;98927.93;107080;1255;69718;-85
2023/12/23 13:09:12;;;;;;;7.70;3.60;;;;;;;6.76;100.00;98931.91;107042;1246;74190;-83
2023/12/23 13:11:41;;;;;;;5.90;2.80;;;;;;;6.86;100.00;98936.23;107037;1248;61108;-84
2023/12/23 13:14:10;;;;;;;4.20;2.80;;;;;;;6.67;100.00;98946.36;107182;1244;62301;-83
2023/12/23 13:16:39;;;;;;;6.70;2.70;;;;;;;6.39;100.00;98957.39;107020;1248;73418;-84
2023/12/23 13:19:08;;;;;;;6.20;3.10;;;;;;;5.78;100.00;98961.45;107186;1244;71619;-83
2023/12/23 13:21:37;;;;;;;9.40;3.10;;;;;;;5.15;100.00;98975.56;107646;1254;59549;-80
2023/12/23 13:24:06;;;;;;;8.70;3.60;;;;;;;4.64;100.00;98977.34;108844;1244;73047;-80
2023/12/23 13:26:35;;;;;;;8.70;3.70;;;;;;;4.24;100.00;98989.34;108287;1251;59030;-81
2023/12/23 13:29:04;;;;;;;9.60;4.50;;;;;;;3.73;100.00;98994.38;108212;1245;57698;-83
2023/12/23 13:31:37;;;;;;;7.00;4.40;;;;;;;3.41;100.00;99001.81;107426;1244;73080;-83
2023/12/23 13:34:06;;;;;;;6.20;3.40;;;;;;;3.15;100.00;99001.18;107170;1244;72508;-85
2023/12/23 13:36:39;;;;;;;7.60;3.30;;;;;;;3.02;100.00;99001.77;107245;1244;70786;-83
2023/12/23 13:39:08;;;;;;;11.00;5.00;;;;;;;2.97;100.00;99001.58;107162;1245;74219;-83
2023/12/23 13:41:36;;;;;;;9.80;5.30;;;;;;;2.80;100.00;98998.44;107202;1253;59095;-83
2023/12/23 13:44:06;;;;;;;13.40;6.20;;;;;;;2.72;100.00;99004.30;107210;1256;60369;-82
2023/12/23 13:46:36;;;;;;;11.90;6.00;;;;;;;2.74;100.00;99007.25;107230;1247;70580;-82
2023/12/23 13:49:05;;;;;;;11.80;5.50;;;;;;;2.67;100.00;99012.73;107232;1248;60889;-83
2023/12/23 13:51:36;;;;;;;12.60;6.00;;;;;;;2.64;100.00;99011.54;107368;1254;70151;-82
2023/12/23 13:54:04;;;;;;;9.70;5.50;;;;;;;2.64;100.00;99013.93;107167;1255;74498;-81
2023/12/23 13:56:37;;;;;;;8.90;5.70;;;;;;;2.61;100.00;99018.56;107228;1246;58995;-81
2023/12/23 13:59:07;;;;;;;6.20;3.60;;;;;;;2.60;100.00;99021.73;107309;1244;61086;-82
2023/12/23 14:01:35;;;;;;;7.20;3.50;;;;;;;2.49;100.00;99011.98;107563;1245;73423;-81
2023/12/23 14:04:05;;;;;;;8.80;4.40;;;;;;;2.52;100.00;99017.15;107362;1256;62950;-81
2023/12/23 14:06:38;;;;;;;6.50;3.40;;;;;;;2.49;100.00;99022.50;107339;1245;60261;-81
2023/12/23 14:09:10;;;;;;;7.90;3.80;;;;;;;2.37;100.00;99027.89;107303;1256;73750;-82
2023/12/23 14:11:41;;;;;;;7.60;3.10;;;;;;;2.41;100.00;99032.31;107265;1247;58820;-81
2023/12/23 14:14:10;;;;;;;6.70;3.20;;;;;;;2.37;100.00;99036.13;108234;1243;57496;-80
2023/12/23 14:16:39;;;;;;;5.70;3.20;;;;;;;2.33;100.00;99042.44;107972;1245;73123;-81
2023/12/23 14:19:08;;;;;;;6.30;3.20;;;;;;;2.34;100.00;99043.89;107465;1248;71618;-83
2023/12/23 14:21:38;;;;;;;6.50;3.30;;;;;;;2.33;100.00;99041.59;107187;1246;70818;-83
2023/12/23 14:24:07;;;;;;;10.20;3.30;;;;;;;2.30;100.00;99049.16;107132;1247;73360;-82
2023/12/23 14:26:36;;;;;;;7.40;2.70;;;;;;;2.25;100.00;99056.36;107145;1254;59645;-82
2023/12/23 14:29:05;;;;;;;4.70;2.80;;;;;;;2.27;100.00;99061.73;107245;1244;60875;-82
2023/12/23 14:31:34;;;;;;;9.20;3.20;;;;;;;2.20;100.00;99069.02;107210;1244;71455;-80
2023/12/23 14:34:03;;;;;;;9.80;3.40;;;;;;;2.13;100.00;99074.52;107261;1252;61648;-82
2023/12/23 14:36:33;;;;;;;6.00;2.70;;;;;;;2.03;100.00;99078.23;107347;1246;59142;-81
2023/12/23 14:39:02;;;;;;;5.50;2.90;;;;;;;1.91;100.00;99077.42;107226;1256;73940;-81
2023/12/23 14:41:31;;;;;;;6.40;3.00;;;;;;;1.87;100.00;99079.23;107269;1245;59104;-80
2023/12/23 14:44:00;;;;;;;5.50;2.80;;;;;;;1.74;100.00;99081.02;107422;1244;59726;-80
2023/12/23 14:46:29;;;;;;;6.20;2.80;;;;;;;1.67;100.00;99077.73;107119;1248;63894;-82
2023/12/23 14:48:58;;;;;;;5.20;2.40;;;;;;;1.62;100.00;99083.52;107218;1249;70431;-78
2023/12/23 14:51:27;;;;;;;5.20;2.70;;;;;;;1.51;100.00;99087.63;107238;1247;68457;-82
2023/12/23 14:53:57;;;;;;;8.80;3.20;;;;;;;1.44;100.00;99095.58;107284;1256;63492;-78
2023/12/23 14:56:26;;;;;;;12.00;5.40;;;;;;;1.41;100.00;99104.36;107346;1245;57561;-80
2023/12/23 14:58:55;;;;;;;11.50;4.80;;;;;;;1.38;100.00;99112.45;107313;1248;60280;-80
2023/12/23 15:01:25;;;;;;;10.90;5.90;;;;;;;1.30;100.00;99114.42;107258;1244;72972;-81
2023/12/23 15:03:54;;;;;;;9.70;5.60;;;;;;;1.28;100.00;99115.25;107113;1247;69968;-80
2023/12/23 15:06:23;;;;;;;9.60;5.70;;;;;;;1.25;100.00;99119.84;107272;1244;68433;-81
2023/12/23 15:08:52;;;;;;;15.90;8.50;;;;;;;1.29;100.00;99123.73;107301;1245;74138;-81
2023/12/23 15:11:22;;;;;;;11.60;5.60;;;;;;;1.16;100.00;99119.54;107464;1244;62556;-80
2023/12/23 15:13:51;;;;;;;16.90;7.30;;;;;;;1.25;100.00;99122.78;107417;1247;60137;-79
2023/12/23 15:16:19;;;;;;;16.40;8.70;;;;;;;1.28;100.00;99130.80;107556;1245;74168;-80
2023/12/23 15:18:48;;;;;;;14.40;8.50;;;;;;;1.23;100.00;99133.17;107438;1243;72582;-81
2023/12/23 15:21:19;;;;;;;14.80;7.70;;;;;;;1.18;100.00;99126.42;107412;1244;70790;-80
2023/12/23 15:23:48;;;;;;;9.60;5.00;;;;;;;1.12;100.00;99128.17;107310;1245;73519;-81
2023/12/23 15:26:17;;;;;;;16.20;6.40;;;;;;;1.05;100.00;99134.05;107166;1248;59847;-83
2023/12/23 15:29:27;;;;;;;12.90;6.80;;;;;;;0.94;100.00;99134.22;104605;1274;614246;-81
2023/12/23 15:31:55;;;;;;;15.80;9.00;;;;;;;0.94;100.00;99140.39;106400;1257;60088;-81
2023/12/23 15:34:25;;;;;;;16.10;8.30;;;;;;;0.91;100.00;99144.87;106302;1260;61003;-80
2023/12/23 15:36:54;;;;;;;14.60;8.50;;;;;;;0.83;100.00;99149.95;107090;1248;70614;-80
2023/12/23 15:39:24;;;;;;;18.40;10.00;;;;;;;0.76;100.00;99147.42;107089;1247;70128;-79
2023/12/23 15:41:54;;;;;;;20.60;11.30;;;;;;;0.69;100.00;99148.14;106926;1257;176331;-81
2023/12/23 15:44:22;;;;;;;39.70;22.30;;;;;;;0.67;100.00;99156.64;107368;1244;72120;-80
2023/12/23 15:46:49;;;;;;;21.50;12.10;;;;;;;0.65;100.00;99156.43;107020;1249;59659;-80
2023/12/23 15:49:17;;;;;;;31.80;16.60;;;;;;;0.62;100.00;99155.89;107241;1244;61578;-83
2023/12/23 15:51:44;;;;;;;28.20;14.60;;;;;;;0.45;100.00;99160.10;107274;1248;70470;-80
2023/12/23 15:54:11;;;;;;;30.10;15.30;;;;;;;0.27;100.00;99169.31;107232;1244;72123;-79
2023/12/23 15:56:39;;;;;;;20.70;13.40;;;;;;;0.29;100.00;99173.02;107324;1248;70133;-80
2023/12/23 15:59:15;;;;;;;24.60;13.30;;;;;;;0.27;100.00;99174.47;107557;1245;72167;-80
2023/12/23 16:02:04;;;;;;;24.40;15.10;;;;;;;0.18;100.00;99173.89;107233;1251;63503;-80
2023/12/23 16:04:32;;;;;;;33.20;18.40;;;;;;;0.10;100.00;99174.69;107521;1241;61416;-80
2023/12/23 16:07:00;;;;;;;26.90;14.50;;;;;;;0.09;100.00;99174.77;107557;1241;73332;-79
2023/12/23 16:09:27;;;;;;;26.30;16.60;;;;;;;0.04;100.00;99170.93;107561;1246;72514;-81
2023/12/23 16:11:55;;;;;;;29.90;19.20;;;;;;;-0.07;100.00;99167.56;107449;1252;67613;-79
2023/12/23 16:14:23;;;;;;;20.30;12.30;;;;;;;-0.19;100.00;99171.64;107655;1245;71337;-79
2023/12/23 16:16:51;;;;;;;18.90;11.90;;;;;;;-0.25;100.00;99169.70;107495;1245;61536;-80
2023/12/23 16:19:19;;;;;;;18.10;10.90;;;;;;;-0.32;100.00;99178.64;107498;1251;61833;-80
2023/12/23 16:21:46;;;;;;;17.80;9.60;;;;;;;-0.37;100.00;99187.75;107414;1242;71237;-81
2023/12/23 16:24:14;;;;;;;22.10;15.80;;;;;;;-0.41;100.00;99195.35;107499;1245;71501;-81
2023/12/23 16:26:41;;;;;;;72.20;33.30;;;;;;;-0.45;100.00;99202.41;107377;1241;70784;-80
2023/12/23 16:29:09;;;;;;;32.80;22.70;;;;;;;-0.55;100.00;99204.79;107433;1241;72746;-81
2023/12/23 16:31:39;;;;;;;22.90;14.40;;;;;;;-0.61;100.00;99209.52;107472;1244;60439;-80
2023/12/23 16:34:08;;;;;;;31.90;19.30;;;;;;;-0.62;100.00;99206.14;107443;1254;59187;-78
2023/12/23 16:36:36;;;;;;;28.00;18.60;;;;;;;-0.62;100.00;99206.85;107511;1241;74120;-81
2023/12/23 16:39:04;;;;;;;29.00;14.80;;;;;;;-0.66;100.00;99214.91;107455;1245;72863;-78
2023/12/23 16:41:34;;;;;;;33.50;19.10;;;;;;;-0.60;100.00;99224.34;107377;1244;68845;-78
2023/12/23 16:44:02;;;;;;;39.50;22.10;;;;;;;-0.61;100.00;99232.77;107388;1245;73323;-80
2023/12/23 16:46:30;;;;;;;37.80;22.10;;;;;;;-0.68;100.00;99231.75;107430;1245;60529;-80
2023/12/23 16:48:57;;;;;;;39.30;22.30;;;;;;;-0.80;100.00;99226.35;107490;1245;59032;-79
2023/12/23 16:51:25;;;;;;;33.40;19.60;;;;;;;-0.95;100.00;99232.05;107512;1245;72605;-78
2023/12/23 16:53:52;;;;;;;29.00;17.10;;;;;;;-0.90;100.00;99236.60;107398;1254;69795;-78
2023/12/23 16:56:20;;;;;;;24.40;14.30;;;;;;;-0.80;100.00;99235.11;107369;1245;68783;-80
2023/12/23 16:58:50;;;;;;;22.80;12.40;;;;;;;-0.86;100.00;99237.11;107432;1255;73733;-79
2023/12/23 17:01:17;;;;;;;24.20;14.30;;;;;;;-0.94;100.00;99234.60;107770;1245;60816;-79
2023/12/23 17:03:48;;;;;;;24.40;13.00;;;;;;;-1.04;100.00;99234.39;107506;1241;61239;-82
2023/12/23 17:06:15;;;;;;;27.30;15.00;;;;;;;-1.17;100.00;99234.33;107501;1244;72599;-80
2023/12/23 17:08:46;;;;;;;22.20;12.80;;;;;;;-1.26;100.00;99237.16;107405;1243;72779;-80
2023/12/23 17:11:16;;;;;;;23.40;13.00;;;;;;;-1.34;100.00;99246.23;107424;1244;70255;-79
2023/12/23 17:13:44;;;;;;;20.90;11.90;;;;;;;-1.30;100.00;99247.77;107013;1249;73835;-80
2023/12/23 17:16:14;;;;;;;24.60;13.20;;;;;;;-1.19;100.00;99242.45;107477;1245;62441;-80
2023/12/23 17:18:41;;;;;;;20.80;13.30;;;;;;;-1.14;100.00;99246.47;107421;1245;59805;-81
2023/12/23 17:21:12;;;;;;;28.80;14.60;;;;;;;-1.22;100.00;99246.88;107340;1245;70222;-78
2023/12/23 17:23:41;;;;;;;25.50;13.50;;;;;;;-1.23;100.00;99234.79;107294;1245;71896;-78
2023/12/23 17:26:08;;;;;;;22.90;13.50;;;;;;;-1.24;100.00;99229.52;107306;1241;69123;-78
2023/12/23 17:28:36;;;;;;;24.00;13.90;;;;;;;-1.23;100.00;99232.73;107337;1245;71946;-81
2023/12/23 17:31:04;;;;;;;19.20;10.90;;;;;;;-1.26;100.00;99239.73;107402;1244;61596;-81
2023/12/23 17:33:32;;;;;;;18.90;11.60;;;;;;;-1.25;100.00;99241.91;107433;1254;61152;-80
2023/12/23 17:35:59;;;;;;;15.50;9.20;;;;;;;-1.26;100.00;99245.19;107555;1244;72611;-80
2023/12/23 17:38:27;;;;;;;21.20;12.50;;;;;;;-1.25;100.00;99248.04;107373;1245;70666;-78
2023/12/23 17:40:55;;;;;;;25.50;15.50;;;;;;;-1.24;100.00;99251.08;107576;1245;71183;-81
2023/12/23 17:43:22;;;;;;;37.30;19.50;;;;;;;-1.28;100.00;99247.48;107426;1245;71480;-78
2023/12/23 17:45:50;;;;;;;35.70;21.10;;;;;;;-1.23;100.00;99247.75;107417;1244;61478;-78
2023/12/23 17:48:20;;;;;;;44.40;21.70;;;;;;;-1.18;100.00;99251.47;107354;1255;60411;-80
2023/12/23 17:50:48;;;;;;;42.40;22.70;;;;;;;-1.28;100.00;99255.16;107478;1242;71850;-79
2023/12/23 17:53:16;;;;;;;36.30;19.70;;;;;;;-1.21;100.00;99263.90;107592;1244;73360;-78
2023/12/23 17:55:44;;;;;;;40.80;22.30;;;;;;;-1.21;100.00;99269.54;107356;1252;68775;-80
2023/12/23 17:58:12;;;;;;;42.30;22.00;;;;;;;-1.32;100.00;99270.07;107573;1245;71844;-78
2023/12/23 18:00:40;;;;;;;28.90;14.80;;;;;;;-1.45;100.00;99271.33;107344;1245;61732;-80
2023/12/23 18:03:17;;;;;;;21.80;13.90;;;;;;;-1.51;100.00;99269.91;107344;1245;60787;-79
2023/12/23 18:05:46;;;;;;;27.20;14.80;;;;;;;-1.56;100.00;99268.95;107067;1255;70999;-81
2023/12/23 18:08:19;;;;;;;27.40;16.10;;;;;;;-1.57;100.00;99268.48;107189;1244;73227;-79
2023/12/23 18:10:49;;;;;;;38.90;22.80;;;;;;;-1.76;100.00;99272.75;107728;1241;69398;-79
2023/12/23 18:13:20;;;;;;;36.30;20.20;;;;;;;-1.90;100.00;99272.02;107091;1251;72262;-80
2023/12/23 18:15:48;;;;;;;40.00;23.80;;;;;;;-1.89;100.00;99269.93;107361;1245;60422;-79
2023/12/23 18:18:20;;;;;;;64.00;37.70;;;;;;;-1.99;100.00;99275.82;107282;1245;59922;-79
2023/12/23 18:20:49;;;;;;;56.30;27.90;;;;;;;-2.21;100.00;99260.88;107159;1255;73564;-79
2023/12/23 18:23:21;;;;;;;58.70;27.80;;;;;;;-2.08;100.00;99275.66;107425;1242;73580;-80
2023/12/23 18:25:49;;;;;;;40.20;21.10;;;;;;;-2.05;100.00;99287.15;107245;1241;71655;-79
2023/12/23 18:28:20;;;;;;;61.20;27.20;;;;;;;-2.02;100.00;99285.14;107339;1244;72663;-79
2023/12/23 18:30:47;;;;;;;29.10;17.40;;;;;;;-2.08;100.00;99289.70;107309;1246;61874;-80
2023/12/23 18:33:20;;;;;;;26.70;16.40;;;;;;;-2.26;100.00;99275.12;107559;1244;60929;-79
2023/12/23 18:35:47;;;;;;;29.80;18.90;;;;;;;-2.08;100.00;99295.47;107165;1243;71818;-80
2023/12/23 18:38:16;;;;;;;30.40;17.60;;;;;;;-2.19;100.00;99278.55;107314;1241;72405;-79
2023/12/23 18:40:44;;;;;;;37.10;21.80;;;;;;;-2.13;100.00;99295.36;107376;1245;69480;-82
2023/12/23 18:43:12;;;;;;;27.80;16.00;;;;;;;-2.19;100.00;99294.94;107515;1244;71610;-78
2023/12/23 18:45:40;;;;;;;26.70;14.90;;;;;;;-2.10;100.00;99295.75;107515;1242;62033;-82
2023/12/23 18:48:09;;;;;;;29.00;16.30;;;;;;;-2.13;100.00;99296.38;107240;1248;59987;-81
2023/12/23 18:50:37;;;;;;;27.40;14.50;;;;;;;-2.15;100.00;99300.22;107386;1245;70623;-81
2023/12/23 18:53:04;;;;;;;22.50;13.00;;;;;;;-2.30;100.00;99303.23;107462;1243;72316;-79
2023/12/23 18:55:37;;;;;;;22.60;13.70;;;;;;;-2.33;100.00;99298.08;107513;1255;69548;-79
2023/12/23 18:58:07;;;;;;;26.80;14.60;;;;;;;-2.24;100.00;99299.58;107333;1244;74433;-79
2023/12/23 19:00:35;;;;;;;26.80;15.40;;;;;;;-2.26;100.00;99299.81;107431;1245;61470;-78
2023/12/23 19:03:11;;;;;;;27.90;16.10;;;;;;;-2.29;100.00;99303.35;107446;1246;60439;-79
2023/12/23 19:05:39;;;;;;;34.40;22.10;;;;;;;-2.23;100.00;99307.52;107236;1248;71226;-78
2023/12/23 19:08:07;;;;;;;92.30;54.20;;;;;;;-2.29;100.00;99309.48;107528;1244;69473;-78
2023/12/23 19:10:35;;;;;;;41.70;27.00;;;;;;;-2.23;100.00;99311.15;107348;1245;69509;-79
2023/12/23 19:13:03;;;;;;;34.60;24.30;;;;;;;-2.12;100.00;99313.40;107415;1245;72143;-78
2023/12/23 19:15:30;;;;;;;30.70;17.10;;;;;;;-2.03;100.00;99312.98;107364;1245;62449;-79
2023/12/23 19:17:58;;;;;;;27.00;18.70;;;;;;;-1.95;100.00;99314.20;107362;1241;59822;-80
2023/12/23 19:20:26;;;;;;;31.20;18.90;;;;;;;-1.89;100.00;99313.09;107373;1245;70915;-80
2023/12/23 19:22:54;;;;;;;26.00;17.30;;;;;;;-1.85;100.00;99308.12;107181;1244;73154;-79